»·PEaware :: DAL225 KEGE-KSLC

DAL225 :: KEGE-KSLC

FLIGHT INFORMATION

Flight Status: Arrived
Operator:
Delta Air Lines
More flights by this operator :: More flights under this callsign
Pilot: Ben F. (2808)
Aircraft: BOEING 727-200
(B722)
More flights by this aircraft type
Origin: KEGE Eagle Co Regl
United States
Destination: KSLC Salt Lake City Intl
United States
More flights between these airports :: More routes between these airports
Route: EKR3 EKR SPANE7
File this flight plan on PilotEdge
Remarks:
Altitude:
(Current/Filed)
32,000ft
Speed:
(Current/Filed)
478kts
Departed: 21-Nov-18 04:16 PM
Arrived: 21-Nov-18 05:08 PM
Distance/Time
Traveled:
242nm/0:52
Distance/Time
To Go:
Arrived

Flight Plot

Page will automatically refresh every two minutes.

Flight plan parsing failed; only flown route is shown


Map Options




Map Legend


Flown Route
Filed Route
Departure Airport
Arrival Airport
Navaid (VOR, NDB)
Fix

Horizontal Profiles

Position Reports

Time Latitude Longitude Heading Altitude Ground
Speed
21-Nov-18 15:59 39.640724 -106.914855 172 6552ft 0kts
21-Nov-18 16:00 39.640724 -106.914855 172 6552ft 0kts
21-Nov-18 16:01 39.640724 -106.914855 172 6552ft 0kts
21-Nov-18 16:02 39.640724 -106.914855 172 6552ft 0kts
21-Nov-18 16:03 39.640724 -106.914855 172 6552ft 0kts
21-Nov-18 16:04 39.640724 -106.914855 172 6552ft 0kts
21-Nov-18 16:05 39.640724 -106.914855 172 6552ft 0kts
21-Nov-18 16:06 39.640724 -106.914855 172 6552ft 0kts
21-Nov-18 16:07 39.640927 -106.914964 137 6552ft 2kts
21-Nov-18 16:08 39.641055 -106.915450 78 6552ft 0kts
21-Nov-18 16:09 39.641055 -106.915449 78 6552ft 0kts
21-Nov-18 16:10 39.641055 -106.915449 78 6552ft 0kts
21-Nov-18 16:11 39.641055 -106.915449 78 6552ft 0kts
21-Nov-18 16:12 39.641218 -106.914559 51 6552ft 4kts
21-Nov-18 16:13 39.642133 -106.912882 81 6552ft 20kts
21-Nov-18 16:14 39.643076 -106.904212 82 6552ft 8kts
21-Nov-18 16:15 39.643300 -106.903791 14 6552ft 0kts
21-Nov-18 16:16 39.643300 -106.903791 14 6552ft 0kts
21-Nov-18 16:17 39.643300 -106.903791 14 6552ft 0kts
21-Nov-18 16:18 39.643840 -106.903880 320 6552ft 9kts
21-Nov-18 16:19 39.643603 -106.908194 262 6552ft 69kts
21-Nov-18 16:20 39.634592 -106.955656 228 7309ft 162kts
21-Nov-18 16:21 39.605364 -107.002092 257 8923ft 177kts
21-Nov-18 16:22 39.639614 -107.037833 358 10483ft 222kts
21-Nov-18 16:23 39.707691 -107.065398 332 12025ft 300kts
21-Nov-18 16:24 39.784065 -107.114114 331 14914ft 320kts
21-Nov-18 16:25 39.836472 -107.208315 291 16739ft 346kts
21-Nov-18 16:26 39.874537 -107.323817 290 19293ft 352kts
21-Nov-18 16:27 39.912723 -107.442602 290 21377ft 361kts
21-Nov-18 16:28 39.951612 -107.564430 290 23207ft 369kts
21-Nov-18 16:29 39.986630 -107.674628 290 24657ft 375kts
21-Nov-18 16:30 40.024670 -107.794827 290 26049ft 381kts
21-Nov-18 16:31 40.063584 -107.923560 280 27304ft 385kts
21-Nov-18 16:32 40.072357 -108.064051 274 28372ft 391kts
21-Nov-18 16:33 40.079093 -108.206930 274 29377ft 397kts
21-Nov-18 16:34 40.085501 -108.351004 274 30385ft 400kts
21-Nov-18 16:35 40.091696 -108.494889 275 31440ft 398kts
21-Nov-18 16:36 40.097624 -108.636337 275 32232ft 400kts
21-Nov-18 16:37 40.103358 -108.776829 275 32245ft 421kts
21-Nov-18 16:38 40.109359 -108.931589 274 32243ft 441kts
21-Nov-18 16:39 40.115298 -109.093738 273 32248ft 458kts
21-Nov-18 16:40 40.121067 -109.260443 272 32252ft 454kts
21-Nov-18 16:41 40.126533 -109.424769 272 31057ft 463kts
21-Nov-18 16:42 40.131852 -109.591222 272 29103ft 458kts
21-Nov-18 16:43 40.136624 -109.747501 271 27311ft 455kts
21-Nov-18 16:44 40.141221 -109.904913 271 25500ft 452kts
21-Nov-18 16:45 40.145781 -110.069152 271 24270ft 464kts
21-Nov-18 16:46 40.146628 -110.241946 268 24265ft 488kts
21-Nov-18 16:47 40.145221 -110.421230 268 24262ft 500kts
21-Nov-18 16:48 40.143513 -110.600882 268 24278ft 494kts
21-Nov-18 16:49 40.141804 -110.772674 268 24290ft 490kts
21-Nov-18 16:50 40.140115 -110.947773 268 24271ft 481kts
21-Nov-18 16:51 40.138157 -111.119534 267 23405ft 471kts
21-Nov-18 16:52 40.135522 -111.282623 267 21383ft 441kts
21-Nov-18 16:53 40.132512 -111.436982 267 19372ft 418kts
21-Nov-18 16:54 40.142677 -111.574825 291 19180ft 360kts
21-Nov-18 16:55 40.185414 -111.695725 293 19191ft 401kts
21-Nov-18 16:56 40.234060 -111.826831 295 17745ft 400kts
21-Nov-18 16:57 40.310681 -111.927076 316 15759ft 390kts
21-Nov-18 16:58 40.390725 -112.017803 317 13775ft 380kts
21-Nov-18 16:59 40.470144 -112.104842 329 11777ft 372kts
21-Nov-18 17:00 40.568014 -112.123542 354 10977ft 332kts
21-Nov-18 17:01 40.653276 -112.130865 355 11004ft 319kts
21-Nov-18 17:02 40.745395 -112.138176 355 10983ft 323kts
21-Nov-18 17:03 40.823727 -112.144078 355 10980ft 250kts
21-Nov-18 17:04 40.894704 -112.149136 355 9836ft 267kts
21-Nov-18 17:05 40.964670 -112.153967 357 8049ft 243kts
21-Nov-18 17:06 40.989297 -112.097319 126 7793ft 210kts
21-Nov-18 17:07 40.954873 -112.034012 137 6891ft 211kts
21-Nov-18 17:08 40.903858 -112.010602 176 6025ft 176kts
21-Nov-18 17:09 40.860966 -112.005471 177 5287ft 142kts
21-Nov-18 17:10 40.821452 -112.000840 176 4525ft 139kts
21-Nov-18 17:11 40.790113 -111.997143 172 4239ft 34kts
21-Nov-18 17:12 40.787217 -111.994770 76 4239ft 8kts
21-Nov-18 17:13 40.790941 -111.993807 66 4239ft 12kts
21-Nov-18 17:14 40.791426 -111.987421 85 4239ft 19kts
21-Nov-18 17:15 40.789629 -111.984004 177 4239ft 7kts

Navigation Log

Ident Type
Flight plan parsing failed, navigation log unavailable